createdAt,value
2022-08-11T00:02:35.231Z,22.95
2022-08-11T00:05:10.487Z,23.04
2022-08-11T00:07:52.219Z,22.97
2022-08-11T00:10:26.070Z,23.07
2022-08-11T00:13:04.793Z,22.94
2022-08-11T00:15:58.450Z,22.93
2022-08-11T00:18:31.618Z,22.83
2022-08-11T00:21:00.388Z,22.72
2022-08-11T00:23:30.238Z,22.67
2022-08-11T00:25:57.855Z,22.76
2022-08-11T00:28:28.281Z,22.70
2022-08-11T00:30:58.062Z,22.66
2022-08-11T00:33:44.249Z,22.40
2022-08-11T00:36:16.254Z,22.43
2022-08-11T00:38:49.774Z,22.51
2022-08-11T00:41:32.757Z,22.54
2022-08-11T00:44:28.851Z,22.50
2022-08-11T00:47:33.234Z,22.21
2022-08-11T00:50:04.884Z,22.34
2022-08-11T00:52:53.515Z,22.24
2022-08-11T00:55:57.272Z,22.32
2022-08-11T00:58:51.123Z,22.26
2022-08-11T01:01:18.155Z,22.11
2022-08-11T01:04:17.244Z,22.02
2022-08-11T01:07:01.968Z,22.06
2022-08-11T01:09:40.887Z,21.97
2022-08-11T01:12:44.879Z,22.02
2022-08-11T01:15:33.165Z,22.00
2022-08-11T01:18:28.767Z,21.80
2022-08-11T01:21:42.408Z,21.73
2022-08-11T01:24:46.189Z,21.80
2022-08-11T01:27:32.752Z,21.62
2022-08-11T01:30:42.229Z,21.67
2022-08-11T01:33:27.827Z,21.48
2022-08-11T01:36:28.619Z,21.43
2022-08-11T01:39:32.742Z,21.41
2022-08-11T01:42:33.619Z,21.25
2022-08-11T01:45:09.150Z,21.43
2022-08-11T01:47:54.362Z,21.42
2022-08-11T01:50:46.575Z,21.37
2022-08-11T01:53:30.835Z,21.35
2022-08-11T01:56:09.312Z,21.30
2022-08-11T01:58:58.110Z,21.33
2022-08-11T02:01:40.913Z,21.15
2022-08-11T02:04:48.636Z,21.31
2022-08-11T02:07:55.609Z,21.32
2022-08-11T02:11:23.276Z,21.11
2022-08-11T02:14:19.224Z,21.04
2022-08-11T02:16:57.946Z,21.03
2022-08-11T02:20:06.741Z,21.05
2022-08-11T02:23:58.644Z,21.10
2022-08-11T02:26:37.250Z,20.96
2022-08-11T02:29:21.987Z,20.86
2022-08-11T02:32:52.194Z,20.92
2022-08-11T02:35:36.799Z,20.82
2022-08-11T02:38:32.246Z,20.87
2022-08-11T02:41:56.480Z,20.81
2022-08-11T02:44:57.477Z,20.58
2022-08-11T02:48:33.459Z,20.57
2022-08-11T02:51:12.503Z,20.65
2022-08-11T02:54:05.895Z,20.61
2022-08-11T02:57:03.477Z,20.65
2022-08-11T03:00:07.573Z,20.64
2022-08-11T03:03:02.772Z,20.47
2022-08-11T03:06:14.376Z,20.46
2022-08-11T03:08:58.059Z,20.54
2022-08-11T03:12:21.680Z,20.38
2022-08-11T03:16:05.093Z,20.46
2022-08-11T03:18:41.571Z,20.21
2022-08-11T03:21:23.790Z,20.41
2022-08-11T03:24:43.139Z,20.26
2022-08-11T03:27:34.047Z,20.08
2022-08-11T03:30:43.990Z,20.13
2022-08-11T03:33:44.470Z,20.02
2022-08-11T03:37:15.091Z,20.04
2022-08-11T03:39:51.133Z,19.93
2022-08-11T03:42:41.934Z,19.92
2022-08-11T03:45:14.604Z,19.92
2022-08-11T03:48:02.688Z,20.02
2022-08-11T03:51:03.638Z,19.89
2022-08-11T03:54:16.114Z,19.99
2022-08-11T03:57:06.414Z,19.68
2022-08-11T04:00:04.263Z,19.91
2022-08-11T04:03:08.083Z,19.85
2022-08-11T04:06:07.271Z,19.92
2022-08-11T04:09:34.177Z,19.89
2022-08-11T04:12:36.495Z,19.83
2022-08-11T04:16:00.743Z,20.00
2022-08-11T04:19:13.003Z,20.00
2022-08-11T04:22:38.013Z,20.07
2022-08-11T04:25:16.622Z,20.00
2022-08-11T04:28:29.113Z,20.04
2022-08-11T04:31:52.042Z,19.99
2022-08-11T04:34:48.649Z,20.17
2022-08-11T04:37:37.133Z,20.13
2022-08-11T04:40:27.871Z,20.29
2022-08-11T04:43:21.512Z,20.26
2022-08-11T04:46:22.287Z,20.29
2022-08-11T04:49:34.052Z,20.37
2022-08-11T04:52:38.465Z,20.47
2022-08-11T04:56:01.176Z,20.48
2022-08-11T04:58:55.604Z,20.63
2022-08-11T05:02:17.931Z,20.92
2022-08-11T05:05:21.109Z,20.99
2022-08-11T05:08:12.817Z,21.06
2022-08-11T05:11:29.785Z,21.26
2022-08-11T05:14:51.293Z,21.49
2022-08-11T05:17:56.634Z,21.19
2022-08-11T05:20:46.324Z,21.39
2022-08-11T05:23:33.628Z,21.44
2022-08-11T05:26:46.249Z,21.49
2022-08-11T05:30:07.262Z,21.66
2022-08-11T05:33:01.950Z,21.78
2022-08-11T05:36:00.825Z,21.91
2022-08-11T05:38:53.282Z,22.07
2022-08-11T05:41:46.206Z,22.21
2022-08-11T05:44:39.244Z,22.20
2022-08-11T05:47:25.754Z,22.37
2022-08-11T05:50:15.094Z,22.42
2022-08-11T05:53:09.270Z,22.51
2022-08-11T05:56:02.401Z,22.70
2022-08-11T05:58:42.655Z,22.97
2022-08-11T06:01:14.889Z,22.80
2022-08-11T06:04:04.352Z,22.70
2022-08-11T06:06:31.776Z,23.01
2022-08-11T06:09:00.997Z,23.24
2022-08-11T06:11:43.828Z,23.40
2022-08-11T06:14:15.588Z,23.42
2022-08-11T06:16:45.851Z,23.59
2022-08-11T06:19:18.254Z,23.76
2022-08-11T06:21:47.911Z,23.75
2022-08-11T06:24:16.189Z,23.81
2022-08-11T06:27:11.778Z,23.89
2022-08-11T06:29:55.178Z,23.98
2022-08-11T06:32:46.825Z,24.31
2022-08-11T06:35:48.957Z,24.45
2022-08-11T06:38:50.084Z,24.54
2022-08-11T06:41:32.350Z,24.37
2022-08-11T06:44:14.281Z,24.64
2022-08-11T06:46:48.576Z,24.89
2022-08-11T06:49:37.543Z,24.93
2022-08-11T06:52:34.915Z,24.88
2022-08-11T06:55:57.917Z,25.18
2022-08-11T06:58:54.621Z,25.21
2022-08-11T07:01:47.893Z,25.53
2022-08-11T07:04:43.201Z,25.73
2022-08-11T07:08:34.779Z,25.66
2022-08-11T07:11:42.387Z,25.80
2022-08-11T07:14:38.284Z,25.95
2022-08-11T07:17:11.884Z,26.09
2022-08-11T07:20:02.084Z,26.19
2022-08-11T07:22:49.923Z,26.50
2022-08-11T07:25:36.827Z,26.61
2022-08-11T07:28:31.213Z,26.58
2022-08-11T07:31:07.910Z,26.82
2022-08-11T07:34:06.375Z,26.94
2022-08-11T07:36:48.546Z,27.18
2022-08-11T07:39:28.054Z,27.15
2022-08-11T07:41:58.806Z,27.06
2022-08-11T07:44:34.763Z,27.49
2022-08-11T07:47:20.868Z,27.83
2022-08-11T07:50:09.229Z,28.09
2022-08-11T07:52:38.391Z,28.23
2022-08-11T07:55:19.703Z,28.26
2022-08-11T07:58:15.849Z,28.21
2022-08-11T08:01:21.793Z,28.28
2022-08-11T08:04:09.499Z,28.43
2022-08-11T08:06:56.535Z,28.76
2022-08-11T08:09:45.270Z,28.97
2022-08-11T08:12:32.021Z,29.20
2022-08-11T08:15:18.358Z,29.21
2022-08-11T08:18:20.477Z,29.01
2022-08-11T08:20:46.666Z,29.55
2022-08-11T08:23:17.143Z,29.68
2022-08-11T08:25:49.737Z,29.91
2022-08-11T08:28:23.374Z,29.85
2022-08-11T08:30:52.468Z,30.01
2022-08-11T08:33:45.996Z,29.84
2022-08-11T08:36:14.741Z,30.12
2022-08-11T08:38:50.379Z,30.49
2022-08-11T08:41:29.841Z,30.71
2022-08-11T08:44:35.155Z,30.79
2022-08-11T08:47:01.206Z,30.71
2022-08-11T08:49:40.551Z,30.78
2022-08-11T08:52:23.746Z,31.01
2022-08-11T08:55:08.760Z,31.15
2022-08-11T08:57:40.359Z,31.30
2022-08-11T09:00:13.053Z,31.33
2022-08-11T09:02:45.987Z,31.37
2022-08-11T09:05:17.184Z,31.64
2022-08-11T09:07:47.598Z,31.72
2022-08-11T09:10:21.798Z,31.63
2022-08-11T09:12:52.763Z,31.53
2022-08-11T09:15:22.262Z,31.61
2022-08-11T09:18:01.426Z,31.66
2022-08-11T09:20:35.327Z,31.59
2022-08-11T09:26:35.351Z,32.16
2022-08-11T09:29:04.659Z,32.25
2022-08-11T09:31:39.846Z,32.37
2022-08-11T09:34:10.481Z,32.64
2022-08-11T09:37:00.330Z,32.75
2022-08-11T09:39:48.190Z,32.66
2022-08-11T09:42:23.571Z,32.90
2022-08-11T09:45:00.966Z,33.08
2022-08-11T09:47:36.252Z,33.28
2022-08-11T09:50:04.341Z,33.14
2022-08-11T09:52:36.573Z,33.55
2022-08-11T09:55:10.849Z,33.52
2022-08-11T09:58:04.274Z,33.67
2022-08-11T10:00:38.050Z,33.20
2022-08-11T10:03:13.947Z,32.93
2022-08-11T10:06:08.162Z,33.10
2022-08-11T10:08:39.330Z,33.56
2022-08-11T10:11:12.845Z,33.99
2022-08-11T10:14:32.662Z,34.12
2022-08-11T10:16:56.562Z,34.19
2022-08-11T10:19:24.710Z,34.25
2022-08-11T10:22:13.887Z,34.43
2022-08-11T10:25:02.777Z,34.86
2022-08-11T10:27:55.206Z,35.05
2022-08-11T10:30:42.449Z,34.70
2022-08-11T10:33:37.823Z,34.61
2022-08-11T10:36:16.284Z,34.50
2022-08-11T10:38:46.871Z,34.71
2022-08-11T10:41:33.065Z,35.10
2022-08-11T10:44:06.581Z,35.40
2022-08-11T10:46:54.478Z,34.54
2022-08-11T10:49:25.468Z,34.20
2022-08-11T10:52:17.491Z,34.82
2022-08-11T10:55:05.566Z,35.30
2022-08-11T10:58:05.079Z,35.14
2022-08-11T11:00:36.159Z,34.76
2022-08-11T11:03:22.832Z,34.83
2022-08-11T11:06:28.195Z,34.83
2022-08-11T11:08:52.823Z,34.84
2022-08-11T11:11:46.089Z,35.00
2022-08-11T11:14:46.246Z,35.38
2022-08-11T11:17:57.633Z,34.89
2022-08-11T11:20:36.241Z,34.74
2022-08-11T11:23:26.112Z,34.68
2022-08-11T11:26:11.743Z,35.20
2022-08-11T11:29:02.062Z,35.69
2022-08-11T11:32:14.717Z,36.29
2022-08-11T11:35:15.721Z,35.53
2022-08-11T11:37:56.128Z,35.20
2022-08-11T11:40:32.423Z,35.43
2022-08-11T11:43:00.457Z,35.64
2022-08-11T11:45:27.613Z,35.85
2022-08-11T11:48:00.365Z,35.99
2022-08-11T11:50:39.279Z,36.43
2022-08-11T11:53:11.113Z,36.28
2022-08-11T11:55:41.074Z,36.59
2022-08-11T11:58:26.929Z,36.79
2022-08-11T12:01:15.619Z,37.08
2022-08-11T12:03:49.759Z,37.30
2022-08-11T12:06:27.598Z,36.65
2022-08-11T12:09:00.463Z,35.90
2022-08-11T12:11:48.474Z,36.21
2022-08-11T12:14:21.001Z,36.27
2022-08-11T12:16:51.410Z,36.39
2022-08-11T12:19:28.628Z,36.61
2022-08-11T12:22:17.479Z,36.61
2022-08-11T12:25:04.839Z,36.90
2022-08-11T12:27:34.580Z,37.05
2022-08-11T12:30:09.426Z,36.87
2022-08-11T12:32:41.448Z,36.52
2022-08-11T12:35:14.985Z,36.92
2022-08-11T12:38:09.959Z,37.11
2022-08-11T12:44:06.435Z,37.02
2022-08-11T12:46:38.008Z,36.56
2022-08-11T12:49:45.376Z,36.48
2022-08-11T12:52:29.557Z,36.28
2022-08-11T12:55:13.420Z,36.00
2022-08-11T12:58:08.118Z,36.27
2022-08-11T13:00:56.260Z,36.68
2022-08-11T13:03:44.432Z,36.82
2022-08-11T13:06:28.712Z,36.74
2022-08-11T13:09:01.082Z,36.64
2022-08-11T13:11:56.744Z,36.21
2022-08-11T13:14:29.260Z,35.89
2022-08-11T13:17:14.935Z,35.65
2022-08-11T13:19:49.671Z,35.55
2022-08-11T13:22:22.278Z,35.89
2022-08-11T13:24:50.398Z,35.95
2022-08-11T13:27:20.874Z,35.95
2022-08-11T13:30:13.400Z,36.01
2022-08-11T13:32:42.945Z,36.33
2022-08-11T13:35:16.225Z,36.27
2022-08-11T13:38:17.346Z,36.15
2022-08-11T13:40:55.241Z,35.78
2022-08-11T13:43:25.820Z,35.75
2022-08-11T13:46:13.473Z,35.98
2022-08-11T13:48:42.319Z,35.95
2022-08-11T13:51:40.908Z,35.57
2022-08-11T13:54:18.946Z,35.98
2022-08-11T13:56:53.613Z,36.01
2022-08-11T13:59:30.031Z,35.83
2022-08-11T14:02:27.953Z,36.02
2022-08-11T14:05:07.141Z,36.36
2022-08-11T14:07:52.108Z,36.24
2022-08-11T14:10:23.406Z,36.41
2022-08-11T14:13:41.608Z,36.20
2022-08-11T14:16:20.017Z,36.04
2022-08-11T14:18:52.419Z,36.23
2022-08-11T14:21:42.453Z,36.25
2022-08-11T14:24:14.547Z,36.27
2022-08-11T14:26:43.489Z,36.19
2022-08-11T14:31:59.509Z,36.07
2022-08-11T14:34:35.679Z,36.01
2022-08-11T14:37:20.265Z,35.87
2022-08-11T14:40:33.238Z,36.10
2022-08-11T14:44:10.471Z,35.93
2022-08-11T14:46:49.043Z,35.67
2022-08-11T14:49:16.379Z,35.62
2022-08-11T14:51:46.974Z,35.89
2022-08-11T14:54:35.754Z,36.04
2022-08-11T14:57:05.213Z,35.87
2022-08-11T14:59:34.995Z,35.64
2022-08-11T15:02:22.749Z,35.49
2022-08-11T15:04:56.159Z,35.26
2022-08-11T15:07:32.373Z,35.06
2022-08-11T15:10:13.770Z,35.27
2022-08-11T15:12:46.526Z,35.05
2022-08-11T15:15:36.428Z,34.92
2022-08-11T15:18:13.621Z,34.93
2022-08-11T15:20:59.528Z,35.14
2022-08-11T15:23:45.277Z,35.08
2022-08-11T15:26:58.725Z,35.14
2022-08-11T15:29:49.384Z,35.21
2022-08-11T15:32:23.793Z,34.75
2022-08-11T15:35:19.617Z,34.32
2022-08-11T15:37:52.696Z,33.80
2022-08-11T15:41:03.177Z,34.00
2022-08-11T15:44:06.318Z,34.12
2022-08-11T15:46:55.160Z,34.14
2022-08-11T15:50:10.672Z,34.11
2022-08-11T15:52:33.281Z,34.27
2022-08-11T15:55:11.190Z,34.07
2022-08-11T15:58:00.465Z,34.09
2022-08-11T16:00:46.634Z,34.25
2022-08-11T16:04:06.448Z,33.93
2022-08-11T16:06:28.552Z,33.89
2022-08-11T16:09:00.789Z,34.08
2022-08-11T16:11:28.440Z,33.82
2022-08-11T16:14:15.249Z,33.71
2022-08-11T16:16:46.013Z,33.63
2022-08-11T16:19:19.075Z,33.74
2022-08-11T16:21:50.543Z,33.71
2022-08-11T16:27:02.421Z,33.74
2022-08-11T16:27:14.610Z,33.96
2022-08-11T16:29:54.670Z,33.75
2022-08-11T16:32:23.901Z,33.68
2022-08-11T16:35:19.367Z,33.55
2022-08-11T16:38:06.563Z,33.56
2022-08-11T16:40:34.634Z,33.46
2022-08-11T16:43:24.672Z,33.20
2022-08-11T16:46:11.974Z,33.39
2022-08-11T16:48:43.645Z,33.35
2022-08-11T16:51:15.343Z,33.33
2022-08-11T16:54:04.583Z,33.38
2022-08-11T16:56:48.189Z,32.96
2022-08-11T16:59:23.116Z,33.12
2022-08-11T17:02:35.734Z,32.93
2022-08-11T17:05:29.466Z,32.98
2022-08-11T17:08:17.251Z,32.86
2022-08-11T17:11:23.582Z,32.98
2022-08-11T17:14:12.416Z,32.70
2022-08-11T17:16:41.066Z,32.50
2022-08-11T17:19:16.943Z,32.63
2022-08-11T17:22:06.741Z,32.63
2022-08-11T17:24:45.091Z,32.57
2022-08-11T17:27:19.561Z,32.26
2022-08-11T17:29:54.970Z,32.10
2022-08-11T17:32:56.781Z,32.14
2022-08-11T17:35:42.989Z,32.04
2022-08-11T17:38:20.861Z,31.80
2022-08-11T17:41:25.063Z,31.78
2022-08-11T17:44:14.393Z,31.95
2022-08-11T17:47:06.256Z,31.98
2022-08-11T17:49:38.090Z,31.75
2022-08-11T17:52:28.809Z,31.75
2022-08-11T17:55:16.866Z,31.51
2022-08-11T17:58:22.885Z,31.39
2022-08-11T18:00:54.354Z,31.29
2022-08-11T18:03:39.332Z,31.14
2022-08-11T18:06:13.749Z,31.16
2022-08-11T18:09:05.485Z,30.94
2022-08-11T18:12:10.763Z,30.89
2022-08-11T18:15:03.318Z,30.72
2022-08-11T18:17:52.383Z,30.68
2022-08-11T18:20:37.958Z,30.69
2022-08-11T18:23:45.932Z,30.52
2022-08-11T18:26:38.901Z,30.47
2022-08-11T18:29:27.255Z,30.04
2022-08-11T18:32:20.703Z,29.93
2022-08-11T18:35:09.359Z,29.82
2022-08-11T18:37:58.153Z,29.76
2022-08-11T18:40:48.005Z,29.54
2022-08-11T18:43:35.428Z,29.50
2022-08-11T18:46:25.861Z,29.51
2022-08-11T18:49:20.068Z,29.33
2022-08-11T18:52:11.259Z,29.21
2022-08-11T18:55:02.004Z,29.27
2022-08-11T18:57:54.676Z,29.08
2022-08-11T19:00:42.229Z,28.96
2022-08-11T19:03:31.077Z,28.77
2022-08-11T19:06:39.882Z,28.78
2022-08-11T19:09:31.072Z,28.61
2022-08-11T19:12:22.519Z,28.59
2022-08-11T19:15:10.183Z,28.44
2022-08-11T19:18:00.168Z,28.15
2022-08-11T19:20:49.338Z,28.30
2022-08-11T19:23:44.765Z,28.24
2022-08-11T19:26:36.555Z,28.28
2022-08-11T19:30:11.070Z,28.09
2022-08-11T19:32:33.619Z,28.09
2022-08-11T19:35:21.237Z,28.05
2022-08-11T19:38:10.640Z,28.08
2022-08-11T19:41:00.463Z,28.08
2022-08-11T19:43:48.474Z,27.95
2022-08-11T19:46:37.288Z,27.87
2022-08-11T19:49:23.392Z,27.76
2022-08-11T19:52:09.314Z,27.51
2022-08-11T19:54:59.590Z,27.70
2022-08-11T19:57:45.430Z,27.36
2022-08-11T20:00:36.692Z,27.41
2022-08-11T20:03:27.937Z,27.31
2022-08-11T20:06:18.991Z,27.30
2022-08-11T20:09:08.185Z,27.35
2022-08-11T20:12:02.136Z,27.20
2022-08-11T20:14:54.450Z,27.18
2022-08-11T20:17:46.153Z,27.17
2022-08-11T20:20:34.905Z,26.95
2022-08-11T20:23:25.238Z,26.84
2022-08-11T20:26:30.362Z,26.92
2022-08-11T20:29:19.100Z,26.75
2022-08-11T20:32:06.584Z,26.72
2022-08-11T20:34:58.574Z,26.68
2022-08-11T20:37:51.319Z,26.68
2022-08-11T20:40:40.305Z,26.37
2022-08-11T20:44:05.876Z,26.51
2022-08-11T20:46:42.840Z,26.41
2022-08-11T20:52:38.434Z,26.21
2022-08-11T20:55:52.142Z,26.25
2022-08-11T21:01:45.913Z,26.20
2022-08-11T21:04:32.839Z,26.07
2022-08-11T21:07:28.180Z,26.22
2022-08-11T21:10:30.214Z,26.14
2022-08-11T21:13:25.665Z,25.92
2022-08-11T21:16:26.207Z,25.87
2022-08-11T21:20:01.342Z,26.06
2022-08-11T21:23:05.937Z,25.75
2022-08-11T21:26:04.103Z,25.77
2022-08-11T21:28:54.664Z,25.75
2022-08-11T21:31:40.921Z,25.68
2022-08-11T21:34:29.707Z,25.88
2022-08-11T21:37:19.586Z,25.83
2022-08-11T21:40:08.252Z,25.78
2022-08-11T21:42:58.036Z,25.81
2022-08-11T21:45:46.658Z,25.68
2022-08-11T21:48:32.920Z,25.62
2022-08-11T21:51:20.898Z,25.71
2022-08-11T21:54:07.093Z,25.54
2022-08-11T21:56:52.880Z,25.44
2022-08-11T21:59:50.647Z,25.38
2022-08-11T22:02:37.420Z,25.27
2022-08-11T22:05:28.453Z,25.02
2022-08-11T22:08:16.179Z,25.21
2022-08-11T22:11:02.003Z,25.26
2022-08-11T22:14:05.964Z,25.21
2022-08-11T22:16:54.301Z,25.12
2022-08-11T22:19:42.211Z,25.24
2022-08-11T22:22:31.411Z,25.22
2022-08-11T22:25:18.836Z,25.26
2022-08-11T22:28:11.088Z,25.12
2022-08-11T22:30:59.131Z,25.01
2022-08-11T22:34:02.861Z,25.18
2022-08-11T22:36:53.724Z,25.14
2022-08-11T22:39:40.227Z,25.12
2022-08-11T22:42:33.160Z,25.06
2022-08-11T22:45:32.010Z,24.84
2022-08-11T22:48:19.400Z,24.96
2022-08-11T22:51:07.880Z,25.04
2022-08-11T22:53:57.950Z,24.99
2022-08-11T22:56:46.547Z,24.71
2022-08-11T22:59:34.811Z,24.89
2022-08-11T23:02:22.585Z,24.89
2022-08-11T23:05:09.509Z,24.73
2022-08-11T23:07:59.575Z,24.74
2022-08-11T23:10:48.417Z,24.86
2022-08-11T23:13:34.676Z,24.84
2022-08-11T23:16:21.356Z,24.79
2022-08-11T23:19:08.052Z,24.78
2022-08-11T23:21:59.437Z,24.73
2022-08-11T23:24:44.994Z,24.61
2022-08-11T23:27:32.253Z,24.67
2022-08-11T23:30:20.683Z,24.57
2022-08-11T23:33:18.041Z,24.53
2022-08-11T23:36:09.356Z,24.46
2022-08-11T23:39:00.245Z,24.49
2022-08-11T23:41:46.136Z,24.41
2022-08-11T23:44:31.326Z,24.46
2022-08-11T23:47:22.186Z,24.37
2022-08-11T23:50:13.236Z,24.33
2022-08-11T23:53:09.078Z,24.45
2022-08-11T23:55:54.357Z,24.19
2022-08-11T23:58:41.568Z,24.30
